Weather History for Ogallala, NE

Change the Weather History Date:

Friday, April 4, 2014

  Actual Average Record
Temperature  
Mean Temperature 39 °F -  
Max Temperature 56 °F 53 °F 81 °F (1959)
Min Temperature 22 °F 27 °F 13 °F (1968)
Degree Days  
Heating Degree Days 26    
Moisture  
Dew Point 24 °F    
Average Humidity 59    
Maximum Humidity 90    
Minimum Humidity 25    
Precipitation  
Precipitation 0.00 in - - ()
Sea Level Pressure  
Sea Level Pressure 30.03 in    
Wind  
Wind Speed 8 mph (SW)    
Max Wind Speed 16 mph    
Max Gust Speed 23 mph    
Visibility 10 miles    
Events      
Averages and records for this station are not official NWS values.
T = Trace of Precipitation, MM = Missing Value Source: NWS Daily Summary

Daily Weather History Graph

Daily Weather History Graph

Search for Another Location

Airport:

Trip Planner

Search our weather history database for the weather conditions in past years. The results will help you decide how hot, cold, wet, or windy it might be!

Date:

Astronomy

Apr. 04, 2014 Rise Set
Actual Time 6:25 AM MDT 7:15 PM MDT
Civil Twilight 5:57 AM MDT 7:43 PM MDT
Nautical Twilight 5:24 AM MDT 8:16 PM MDT
Astronomical Twilight 4:50 AM MDT 8:51 PM MDT
Moon 9:42 AM MDT (4/4) No Moon Set
Length of Visible Light 13h 45m
Length of Day
12h 50m
Waxing Crescent, 26% of the Moon is Illuminated
Apr 4
Waxing Crescent
Apr 7
First Quarter
Apr 15
Full
Apr 22
Last Quarter
Apr 29
New

Hourly Weather History & Observations

Time (MDT) Temp. Windchill Dew Point Humidity Pressure Visibility Wind Dir Wind Speed Gust Speed Precip Events Conditions
12:15 AM 28.4 °F 20.4 °F 22.8 °F 80% 30.07 in 10.0 mi NW 8.1 mph - N/A   Clear
12:35 AM 27.3 °F 17.7 °F 22.8 °F 83% 30.07 in 10.0 mi NNW 10.4 mph - N/A   Clear
12:55 AM 27.5 °F 18.6 °F 23.0 °F 83% 30.08 in 10.0 mi NNW 9.2 mph - N/A   Clear
1:15 AM 28.0 °F 18.1 °F 23.0 °F 81% 30.08 in 10.0 mi NW 11.5 mph - N/A   Clear
1:35 AM 28.0 °F 17.0 °F 23.0 °F 81% 30.07 in 10.0 mi NW 13.8 mph - N/A   Clear
1:55 AM 28.2 °F 17.2 °F 23.4 °F 82% 30.07 in 10.0 mi NNW 13.8 mph - N/A   Clear
2:15 AM 27.3 °F 17.7 °F 23.0 °F 84% 30.08 in 10.0 mi NW 10.4 mph - N/A   Clear
2:35 AM 27.1 °F 16.9 °F 22.8 °F 84% 30.08 in 10.0 mi NNW 11.5 mph - N/A   Clear
2:55 AM 27.0 °F 16.1 °F 22.8 °F 84% 30.08 in 10.0 mi NW 12.7 mph - N/A   Clear
3:15 AM 27.1 °F 15.4 °F 23.0 °F 84% 30.07 in 10.0 mi NNW 15.0 mph - N/A   Clear
3:35 AM 27.5 °F 15.9 °F 23.2 °F 84% 30.07 in 10.0 mi NNW 15.0 mph - N/A   Clear
3:55 AM 26.8 °F 17.1 °F 22.6 °F 84% 30.07 in 10.0 mi NW 10.4 mph - N/A   Clear
4:15 AM 25.2 °F 19.5 °F 21.6 °F 86% 30.08 in 10.0 mi West 4.6 mph - N/A   Clear
4:35 AM 23.9 °F 19.5 °F 21.0 °F 89% 30.08 in 10.0 mi WNW 3.5 mph - N/A   Clear
4:55 AM 22.8 °F - 19.9 °F 89% 30.08 in 10.0 mi Calm Calm - N/A   Clear
5:10 AM 23.2 °F 18.7 °F 20.7 °F 90% 30.08 in 10.0 mi West 3.5 mph - N/A   Clear
5:35 AM 24.3 °F 17.3 °F 21.4 °F 89% 30.08 in 10.0 mi WNW 5.8 mph - N/A   Clear
5:55 AM 22.5 °F 15.1 °F 19.8 °F 89% 30.08 in 10.0 mi WNW 5.8 mph - N/A   Clear
6:15 AM 22.6 °F 16.5 °F 19.8 °F 89% 30.09 in 10.0 mi West 4.6 mph - N/A   Clear
6:35 AM 22.6 °F 18.0 °F 19.8 °F 89% 30.08 in 10.0 mi West 3.5 mph - N/A   Clear
6:55 AM 23.0 °F - 20.3 °F 89% 30.09 in 10.0 mi Calm Calm - N/A   Clear
7:15 AM 23.5 °F 17.6 °F 20.7 °F 89% 30.09 in 10.0 mi West 4.6 mph - N/A   Clear
7:35 AM 25.3 °F 19.7 °F 22.1 °F 87% 30.10 in 10.0 mi WSW 4.6 mph - N/A   Clear
7:55 AM 26.8 °F 20.2 °F 23.2 °F 86% 30.09 in 10.0 mi West 5.8 mph - N/A   Clear
8:15 AM 28.4 °F 22.2 °F 24.4 °F 85% 30.10 in 10.0 mi West 5.8 mph - N/A   Clear
8:35 AM 30.2 °F 24.3 °F 25.7 °F 83% 30.10 in 10.0 mi WSW 5.8 mph - N/A   Clear
8:55 AM 32.0 °F - 26.4 °F 80% 30.10 in 10.0 mi Calm Calm - N/A   Clear
9:15 AM 34.7 °F - 26.8 °F 73% 30.10 in 10.0 mi Calm Calm - N/A   Clear
9:35 AM 36.3 °F 32.5 °F 27.5 °F 70% 30.10 in 10.0 mi West 4.6 mph - N/A   Clear
9:55 AM 37.9 °F - 28.6 °F 69% 30.10 in 10.0 mi Calm Calm - N/A   Clear
10:15 AM 40.1 °F 36.1 °F 29.3 °F 65% 30.10 in 10.0 mi WSW 5.8 mph - N/A   Clear
10:35 AM 42.1 °F 37.7 °F 29.5 °F 61% 30.10 in 10.0 mi WSW 6.9 mph - N/A   Clear
10:55 AM 43.9 °F 42.3 °F 29.1 °F 56% 30.09 in 10.0 mi WSW 3.5 mph - N/A   Clear
11:15 AM 45.7 °F - 28.2 °F 51% 30.08 in 10.0 mi Calm Calm - N/A   Clear
11:35 AM 47.7 °F - 27.7 °F 46% 30.07 in 10.0 mi SW 9.2 mph - N/A   Clear
12:15 PM 49.6 °F - 24.8 °F 38% 30.06 in 10.0 mi WNW 3.5 mph - N/A   Clear
12:35 PM 50.2 °F - 23.4 °F 35% 30.05 in 10.0 mi Calm Calm - N/A   Clear
12:55 PM 51.4 °F - 23.0 °F 33% 30.04 in 10.0 mi West 3.5 mph - N/A   Clear
1:15 PM 52.3 °F - 23.0 °F 32% 30.04 in 10.0 mi Calm Calm - N/A   Clear
1:35 PM 52.0 °F - 23.4 °F 33% 30.02 in 10.0 mi South 3.5 mph - N/A   Clear
1:55 PM 52.2 °F - 21.7 °F 30% 30.02 in 10.0 mi Calm Calm - N/A   Clear
2:15 PM 52.5 °F - 21.4 °F 30% 30.01 in 10.0 mi ESE 3.5 mph - N/A   Clear
2:55 PM 54.0 °F - 21.0 °F 28% 29.99 in 10.0 mi SSE 3.5 mph - N/A   Clear
3:15 PM 53.6 °F - 20.3 °F 27% 29.99 in 10.0 mi SE 4.6 mph - N/A   Clear
3:35 PM 54.7 °F - 19.6 °F 25% 29.98 in 10.0 mi SE 4.6 mph - N/A   Clear
3:55 PM 56.1 °F - 20.1 °F 25% 29.97 in 10.0 mi South 11.5 mph 18.4 mph N/A   Clear
4:15 PM 56.3 °F - 20.8 °F 25% 29.96 in 10.0 mi SSE 6.9 mph 16.1 mph N/A   Clear
4:35 PM 56.5 °F - 21.4 °F 26% 29.96 in 10.0 mi South 10.4 mph - N/A   Clear
4:55 PM 56.8 °F - 21.6 °F 25% 29.95 in 10.0 mi SSW 9.2 mph 16.1 mph N/A   Clear
5:15 PM 55.4 °F - 21.0 °F 26% 29.95 in 10.0 mi South 6.9 mph - N/A   Scattered Clouds
5:35 PM 56.7 °F - 21.4 °F 25% 29.95 in 10.0 mi South 10.4 mph - N/A   Clear
5:55 PM 56.3 °F - 20.5 °F 25% 29.94 in 10.0 mi South 8.1 mph - N/A   Clear
6:15 PM 56.1 °F - 20.5 °F 25% 29.94 in 10.0 mi South 8.1 mph - N/A   Clear
6:35 PM 54.7 °F - 21.6 °F 28% 29.94 in 10.0 mi South 8.1 mph - N/A   Clear
6:55 PM 52.9 °F - 21.9 °F 30% 29.94 in 10.0 mi SSE 5.8 mph - N/A   Clear
7:15 PM 50.2 °F - 23.0 °F 35% 29.94 in 10.0 mi SE 6.9 mph - N/A   Clear
7:35 PM 48.0 °F - 24.3 °F 39% 29.94 in 10.0 mi SE 8.1 mph - N/A   Clear
7:55 PM 46.8 °F - 24.8 °F 42% 29.94 in 10.0 mi SE 8.1 mph - N/A   Clear
8:15 PM 45.5 °F 41.8 °F 25.5 °F 46% 29.95 in 10.0 mi SE 6.9 mph - N/A   Clear
8:35 PM 44.4 °F 40.0 °F 25.7 °F 48% 29.95 in 10.0 mi SE 8.1 mph - N/A   Clear
8:55 PM 43.9 °F 37.9 °F 25.3 °F 48% 29.95 in 10.0 mi SSE 11.5 mph - N/A   Clear
9:15 PM 42.8 °F 36.6 °F 25.3 °F 50% 29.96 in 10.0 mi SSE 11.5 mph - N/A   Clear
9:35 PM 41.9 °F 35.4 °F 25.3 °F 52% 29.96 in 10.0 mi SSE 11.5 mph - N/A   Clear
9:55 PM 41.2 °F 35.5 °F 25.7 °F 54% 29.96 in 10.0 mi SSE 9.2 mph - N/A   Clear
10:15 PM 41.0 °F 34.7 °F 26.6 °F 57% 29.96 in 10.0 mi SSE 10.4 mph - N/A   Clear
10:35 PM 41.0 °F 33.5 °F 27.7 °F 59% 29.96 in 10.0 mi SSE 13.8 mph - N/A   Clear
10:55 PM 41.2 °F 33.4 °F 28.4 °F 60% 29.95 in 10.0 mi SSE 15.0 mph - N/A   Clear
11:15 PM 41.4 °F 33.3 °F 28.4 °F 60% 29.95 in 10.0 mi SSE 16.1 mph - N/A   Clear
11:35 PM 41.2 °F 33.0 °F 28.8 °F 61% 29.94 in 10.0 mi SSE 16.1 mph 23.0 mph N/A   Clear
11:55 PM 41.0 °F 32.8 °F 28.4 °F 61% 29.94 in 10.0 mi South 16.1 mph 23.0 mph N/A   Clear